createdAt,value
2018-09-26T00:00:16.476Z,11.30
2018-09-26T00:02:47.352Z,11.30
2018-09-26T00:05:16.338Z,11.40
2018-09-26T00:07:43.790Z,11.60
2018-09-26T00:10:11.250Z,11.30
2018-09-26T00:12:38.737Z,11.10
2018-09-26T00:15:06.262Z,11.00
2018-09-26T00:17:34.480Z,11.10
2018-09-26T00:20:01.976Z,11.40
2018-09-26T00:22:29.413Z,11.50
2018-09-26T00:24:56.877Z,11.30
2018-09-26T00:27:24.349Z,11.10
2018-09-26T00:29:51.788Z,11.10
2018-09-26T00:32:19.278Z,11.20
2018-09-26T00:34:46.749Z,11.20
2018-09-26T00:37:14.178Z,11.30
2018-09-26T00:39:41.601Z,11.40
2018-09-26T00:42:09.043Z,11.60
2018-09-26T00:44:36.489Z,11.30
2018-09-26T00:47:03.990Z,11.10
2018-09-26T00:49:31.533Z,10.90
2018-09-26T00:51:58.956Z,11.10
2018-09-26T00:54:26.439Z,11.20
2018-09-26T00:56:53.870Z,11.00
2018-09-26T00:59:21.494Z,11.00
2018-09-26T01:01:48.954Z,11.00
2018-09-26T01:04:16.474Z,10.70
2018-09-26T01:06:43.984Z,10.50
2018-09-26T01:09:11.554Z,10.30
2018-09-26T01:11:39.014Z,10.50
2018-09-26T01:14:06.795Z,10.80
2018-09-26T01:16:34.270Z,11.10
2018-09-26T01:19:01.957Z,11.40
2018-09-26T01:21:29.454Z,11.50
2018-09-26T01:23:56.924Z,11.50
2018-09-26T01:26:24.466Z,11.40
2018-09-26T01:28:52.181Z,11.30
2018-09-26T01:31:19.738Z,11.30
2018-09-26T01:33:47.284Z,11.20
2018-09-26T01:36:14.790Z,11.20
2018-09-26T01:38:42.198Z,11.00
2018-09-26T01:41:09.822Z,11.00
2018-09-26T01:43:37.289Z,11.20
2018-09-26T01:46:04.994Z,11.20
2018-09-26T01:48:32.421Z,11.30
2018-09-26T01:50:59.965Z,11.50
2018-09-26T01:53:27.503Z,11.30
2018-09-26T01:55:55.010Z,11.40
2018-09-26T01:58:22.458Z,11.30
2018-09-26T02:00:49.977Z,10.90
2018-09-26T02:03:17.401Z,11.00
2018-09-26T02:05:44.933Z,11.20
2018-09-26T02:08:12.482Z,11.30
2018-09-26T02:10:39.897Z,11.40
2018-09-26T02:13:07.462Z,11.40
2018-09-26T02:15:34.946Z,11.40
2018-09-26T02:18:02.515Z,11.40
2018-09-26T02:20:29.946Z,11.10
2018-09-26T02:22:57.487Z,11.20
2018-09-26T02:25:24.915Z,11.10
2018-09-26T02:27:52.383Z,11.10
2018-09-26T02:30:19.886Z,11.00
2018-09-26T02:32:47.306Z,11.20
2018-09-26T02:35:14.774Z,10.90
2018-09-26T02:37:42.313Z,10.60
2018-09-26T02:40:09.761Z,10.50
2018-09-26T02:42:37.192Z,10.50
2018-09-26T02:45:04.655Z,10.60
2018-09-26T02:47:32.052Z,10.70
2018-09-26T02:49:59.566Z,10.90
2018-09-26T02:52:27.014Z,10.90
2018-09-26T02:54:54.473Z,10.60
2018-09-26T02:57:21.966Z,10.50
2018-09-26T02:59:49.385Z,10.10
2018-09-26T03:02:16.853Z,10.10
2018-09-26T03:04:44.337Z,10.50
2018-09-26T03:07:11.897Z,10.80
2018-09-26T03:09:39.333Z,11.20
2018-09-26T03:12:06.782Z,11.20
2018-09-26T03:14:34.274Z,10.40
2018-09-26T03:17:01.695Z,9.90
2018-09-26T03:19:29.226Z,9.80
2018-09-26T03:21:56.673Z,10.00
2018-09-26T03:24:24.085Z,10.10
2018-09-26T03:26:51.630Z,10.50
2018-09-26T03:29:19.061Z,10.40
2018-09-26T03:31:46.513Z,10.30
2018-09-26T03:34:13.966Z,10.00
2018-09-26T03:36:41.413Z,9.70
2018-09-26T03:39:09.115Z,9.50
2018-09-26T03:41:37.023Z,9.60
2018-09-26T03:44:04.550Z,9.80
2018-09-26T03:46:31.966Z,9.90
2018-09-26T03:48:59.459Z,10.30
2018-09-26T03:51:26.897Z,10.70
2018-09-26T03:53:54.323Z,10.90
2018-09-26T03:56:21.778Z,11.20
2018-09-26T03:58:49.493Z,10.80
2018-09-26T04:01:16.917Z,10.60
2018-09-26T04:03:44.499Z,10.20
2018-09-26T04:06:11.978Z,9.90
2018-09-26T04:08:39.402Z,9.80
2018-09-26T04:11:06.952Z,10.10
2018-09-26T04:13:34.469Z,10.20
2018-09-26T04:16:02.049Z,9.90
2018-09-26T04:18:29.543Z,10.30
2018-09-26T04:20:56.950Z,10.50
2018-09-26T04:23:24.496Z,10.30
2018-09-26T04:25:52.057Z,10.20
2018-09-26T04:28:19.510Z,10.40
2018-09-26T04:30:47.109Z,10.40
2018-09-26T04:33:14.670Z,10.30
2018-09-26T04:35:42.008Z,10.20
2018-09-26T04:38:10.075Z,10.30
2018-09-26T04:40:37.671Z,10.40
2018-09-26T04:43:05.366Z,10.00
2018-09-26T04:45:32.788Z,9.80
2018-09-26T04:48:00.288Z,9.50
2018-09-26T04:50:27.858Z,9.20
2018-09-26T04:52:55.277Z,9.20
2018-09-26T04:55:22.767Z,9.40
2018-09-26T04:57:50.226Z,9.60
2018-09-26T05:00:17.681Z,10.00
2018-09-26T05:02:45.269Z,10.40
2018-09-26T05:05:12.850Z,10.60
2018-09-26T05:07:40.289Z,10.90
2018-09-26T05:10:07.891Z,10.60
2018-09-26T05:12:35.847Z,9.80
2018-09-26T05:15:03.459Z,9.30
2018-09-26T05:17:31.001Z,9.20
2018-09-26T05:19:58.474Z,9.20
2018-09-26T05:22:26.235Z,9.50
2018-09-26T05:24:53.701Z,10.00
2018-09-26T05:27:21.197Z,10.20
2018-09-26T05:29:48.626Z,10.30
2018-09-26T05:32:16.079Z,9.70
2018-09-26T05:34:43.501Z,9.10
2018-09-26T05:37:11.108Z,8.80
2018-09-26T05:39:38.538Z,8.40
2018-09-26T05:42:06.009Z,8.60
2018-09-26T05:44:33.476Z,9.00
2018-09-26T05:47:01.302Z,9.30
2018-09-26T05:49:28.782Z,9.50
2018-09-26T05:51:56.369Z,9.70
2018-09-26T05:54:23.807Z,9.80
2018-09-26T05:56:51.380Z,9.60
2018-09-26T05:59:18.841Z,9.80
2018-09-26T06:01:46.394Z,10.10
2018-09-26T06:04:13.881Z,10.10
2018-09-26T06:06:41.478Z,10.40
2018-09-26T06:09:12.078Z,10.50
2018-09-26T06:11:39.718Z,10.80
2018-09-26T06:14:07.757Z,11.10
2018-09-26T06:16:35.254Z,10.80
2018-09-26T06:19:02.704Z,10.30
2018-09-26T06:21:30.240Z,10.70
2018-09-26T06:23:57.668Z,10.90
2018-09-26T06:26:25.111Z,11.30
2018-09-26T06:28:52.553Z,11.10
2018-09-26T06:31:20.006Z,11.20
2018-09-26T06:33:47.405Z,11.40
2018-09-26T06:36:14.850Z,11.50
2018-09-26T06:38:42.302Z,11.70
2018-09-26T06:41:09.957Z,12.10
2018-09-26T06:43:37.536Z,12.30
2018-09-26T06:46:05.285Z,12.20
2018-09-26T06:48:32.846Z,12.50
2018-09-26T06:51:00.269Z,12.80
2018-09-26T06:53:27.798Z,13.20
2018-09-26T06:55:55.328Z,13.60
2018-09-26T06:58:22.747Z,13.80
2018-09-26T07:00:50.170Z,14.00
2018-09-26T07:03:17.726Z,14.20
2018-09-26T07:05:45.180Z,14.30
2018-09-26T07:08:12.883Z,14.40
2018-09-26T07:10:40.398Z,14.60
2018-09-26T07:13:07.905Z,14.80
2018-09-26T07:15:35.390Z,15.20
2018-09-26T07:18:02.955Z,15.50
2018-09-26T07:20:30.377Z,15.30
2018-09-26T07:22:57.818Z,15.50
2018-09-26T07:25:25.294Z,15.90
2018-09-26T07:27:52.736Z,16.40
2018-09-26T07:30:20.201Z,17.00
2018-09-26T07:32:47.647Z,17.50
2018-09-26T07:35:15.095Z,17.90
2018-09-26T07:37:42.578Z,18.00
2018-09-26T07:40:10.237Z,18.10
2018-09-26T07:42:37.665Z,18.30
2018-09-26T07:45:05.206Z,18.30
2018-09-26T07:47:32.654Z,18.10
2018-09-26T07:50:00.070Z,17.70
2018-09-26T07:52:27.497Z,17.10
2018-09-26T07:54:54.949Z,17.00
2018-09-26T07:57:22.419Z,16.40
2018-09-26T07:59:50.163Z,15.90
2018-09-26T08:02:17.573Z,16.30
2018-09-26T08:04:45.031Z,16.90
2018-09-26T08:07:12.481Z,17.40
2018-09-26T08:09:40.416Z,18.10
2018-09-26T08:12:07.872Z,18.20
2018-09-26T08:14:35.319Z,18.20
2018-09-26T08:17:03.119Z,18.20
2018-09-26T08:19:30.725Z,18.40
2018-09-26T08:21:58.145Z,18.40
2018-09-26T08:24:25.633Z,19.10
2018-09-26T08:26:53.170Z,20.00
2018-09-26T08:29:20.634Z,20.50
2018-09-26T08:31:48.128Z,20.40
2018-09-26T08:34:15.613Z,21.00
2018-09-26T08:36:43.046Z,21.10
2018-09-26T08:39:11.942Z,21.90
2018-09-26T08:41:39.402Z,22.50
2018-09-26T08:44:07.461Z,22.40
2018-09-26T08:46:34.901Z,22.10
2018-09-26T08:49:02.332Z,22.00
2018-09-26T08:51:29.977Z,22.40
2018-09-26T08:53:57.528Z,22.50
2018-09-26T08:56:24.961Z,21.20
2018-09-26T08:58:52.449Z,20.90
2018-09-26T09:01:25.594Z,21.80
2018-09-26T09:03:53.030Z,22.10
2018-09-26T09:06:20.604Z,19.90
2018-09-26T09:08:47.947Z,19.00
2018-09-26T09:11:15.453Z,18.70
2018-09-26T09:13:42.853Z,18.10
2018-09-26T09:16:10.330Z,17.00
2018-09-26T09:18:37.981Z,16.50
2018-09-26T09:21:05.556Z,16.20
2018-09-26T09:23:33.011Z,16.00
2018-09-26T09:26:00.485Z,15.90
2018-09-26T09:28:28.058Z,16.40
2018-09-26T09:30:55.649Z,16.90
2018-09-26T09:33:23.249Z,17.30
2018-09-26T09:35:50.742Z,17.50
2018-09-26T09:38:18.311Z,17.80
2018-09-26T09:40:45.730Z,17.80
2018-09-26T09:43:13.305Z,17.60
2018-09-26T09:45:40.926Z,17.10
2018-09-26T09:48:08.586Z,16.80
2018-09-26T09:50:36.132Z,16.70
2018-09-26T09:53:03.673Z,16.50
2018-09-26T09:55:31.106Z,16.70
2018-09-26T09:57:58.553Z,16.90
2018-09-26T10:00:31.581Z,17.10
2018-09-26T10:02:59.195Z,16.70
2018-09-26T10:05:26.598Z,16.70
2018-09-26T10:07:54.094Z,16.80
2018-09-26T10:10:21.527Z,16.90
2018-09-26T10:12:48.977Z,17.20
2018-09-26T10:15:16.446Z,17.10
2018-09-26T10:17:43.914Z,17.20
2018-09-26T10:20:11.332Z,17.40
2018-09-26T10:22:38.681Z,17.30
2018-09-26T10:25:06.176Z,17.20
2018-09-26T10:27:33.516Z,17.40
2018-09-26T10:30:00.950Z,18.20
2018-09-26T10:32:28.330Z,19.50
2018-09-26T10:34:55.747Z,20.20
2018-09-26T10:37:23.086Z,20.40
2018-09-26T10:39:50.479Z,21.10
2018-09-26T10:42:17.845Z,21.30
2018-09-26T10:44:45.213Z,21.40
2018-09-26T10:47:12.634Z,22.80
2018-09-26T10:49:40.041Z,23.60
2018-09-26T10:52:07.142Z,27.10
2018-09-26T10:54:34.529Z,29.30
2018-09-26T10:57:01.970Z,30.50
2018-09-26T10:59:29.354Z,31.60
2018-09-26T11:01:56.829Z,32.90
2018-09-26T11:04:24.288Z,34.20
2018-09-26T11:06:51.694Z,35.00
2018-09-26T11:09:19.125Z,35.80
2018-09-26T11:11:46.502Z,36.20
2018-09-26T11:14:13.985Z,36.30
2018-09-26T11:16:41.354Z,35.70
2018-09-26T11:19:08.746Z,36.60
2018-09-26T11:21:36.178Z,37.20
2018-09-26T11:24:03.582Z,37.80
2018-09-26T11:26:30.995Z,38.10
2018-09-26T11:28:58.421Z,38.30
2018-09-26T11:31:25.872Z,37.00
2018-09-26T11:33:53.324Z,37.20
2018-09-26T11:36:20.697Z,37.70
2018-09-26T11:38:48.086Z,36.60
2018-09-26T11:41:15.485Z,35.20
2018-09-26T11:43:42.889Z,34.00
2018-09-26T11:46:10.340Z,31.30
2018-09-26T11:48:37.758Z,28.90
2018-09-26T11:51:05.246Z,27.30
2018-09-26T11:53:32.673Z,25.90
2018-09-26T11:56:00.156Z,25.10
2018-09-26T11:58:27.605Z,24.00
2018-09-26T12:00:54.977Z,24.40
2018-09-26T12:03:22.472Z,25.50
2018-09-26T12:05:49.900Z,25.80
2018-09-26T12:08:17.373Z,25.20
2018-09-26T12:10:44.783Z,24.40
2018-09-26T12:13:12.153Z,23.80
2018-09-26T12:15:39.546Z,23.40
2018-09-26T12:18:07.094Z,23.10
2018-09-26T12:20:34.453Z,22.90
2018-09-26T12:23:01.863Z,22.80
2018-09-26T12:25:29.271Z,22.90
2018-09-26T12:27:56.800Z,23.00
2018-09-26T12:30:24.338Z,24.10
2018-09-26T12:32:51.613Z,24.70
2018-09-26T12:35:19.023Z,25.10
2018-09-26T12:37:46.466Z,24.90
2018-09-26T12:40:13.895Z,24.40
2018-09-26T12:42:41.336Z,24.00
2018-09-26T12:45:08.738Z,23.70
2018-09-26T12:47:36.157Z,23.30
2018-09-26T12:50:04.069Z,23.10
2018-09-26T12:52:31.492Z,23.00
2018-09-26T12:54:58.898Z,23.20
2018-09-26T12:57:26.293Z,23.10
2018-09-26T12:59:53.769Z,23.00
2018-09-26T13:02:21.269Z,23.00
2018-09-26T13:04:48.685Z,23.20
2018-09-26T13:07:16.132Z,23.60
2018-09-26T13:09:43.555Z,23.30
2018-09-26T13:12:10.953Z,23.20
2018-09-26T13:14:38.309Z,23.50
2018-09-26T13:17:05.686Z,24.50
2018-09-26T13:19:33.073Z,26.40
2018-09-26T13:22:00.445Z,28.70
2018-09-26T13:24:27.834Z,29.60
2018-09-26T13:26:55.221Z,28.60
2018-09-26T13:29:22.593Z,27.80
2018-09-26T13:31:49.982Z,28.90
2018-09-26T13:34:17.487Z,30.30
2018-09-26T13:36:44.815Z,31.50
2018-09-26T13:39:12.301Z,32.10
2018-09-26T13:41:39.602Z,32.20
2018-09-26T13:44:06.981Z,32.40
2018-09-26T13:46:34.487Z,32.30
2018-09-26T13:49:01.807Z,32.20
2018-09-26T13:51:29.230Z,31.90
2018-09-26T13:53:56.594Z,31.70
2018-09-26T13:56:24.124Z,31.50
2018-09-26T13:58:51.430Z,31.50
2018-09-26T14:01:18.949Z,31.30
2018-09-26T14:03:46.327Z,31.40
2018-09-26T14:06:13.781Z,31.00
2018-09-26T14:08:41.192Z,30.60
2018-09-26T14:11:09.196Z,30.30
2018-09-26T14:13:36.554Z,29.80
2018-09-26T14:16:03.993Z,29.30
2018-09-26T14:18:31.473Z,29.10
2018-09-26T14:20:58.895Z,29.00
2018-09-26T14:23:26.366Z,28.70
2018-09-26T14:25:53.785Z,28.30
2018-09-26T14:28:21.262Z,27.70
2018-09-26T14:30:48.611Z,27.30
2018-09-26T14:33:15.987Z,26.80
2018-09-26T14:35:43.376Z,26.00
2018-09-26T14:38:10.795Z,25.40
2018-09-26T14:40:38.432Z,25.00
2018-09-26T14:43:05.994Z,24.70
2018-09-26T14:45:33.474Z,24.50
2018-09-26T14:48:00.793Z,24.20
2018-09-26T14:50:28.193Z,24.10
2018-09-26T14:52:55.627Z,23.90
2018-09-26T14:55:23.048Z,23.80
2018-09-26T14:57:50.442Z,23.70
2018-09-26T15:00:17.934Z,23.60
2018-09-26T15:02:45.309Z,23.60
2018-09-26T15:05:12.756Z,23.50
2018-09-26T15:07:40.199Z,23.50
2018-09-26T15:10:07.677Z,23.30
2018-09-26T15:12:35.074Z,23.30
2018-09-26T15:15:02.531Z,23.30
2018-09-26T15:17:29.959Z,23.20
2018-09-26T15:19:57.444Z,23.20
2018-09-26T15:22:24.798Z,23.10
2018-09-26T15:24:52.261Z,23.10
2018-09-26T15:27:19.649Z,22.90
2018-09-26T15:29:47.070Z,22.80
2018-09-26T15:32:14.497Z,22.80
2018-09-26T15:34:41.918Z,22.90
2018-09-26T15:37:09.329Z,22.90
2018-09-26T15:39:36.757Z,22.90
2018-09-26T15:42:04.212Z,22.80
2018-09-26T15:44:31.598Z,22.80
2018-09-26T15:46:58.994Z,22.80
2018-09-26T15:49:26.426Z,22.70
2018-09-26T15:51:53.838Z,22.60
2018-09-26T15:54:21.320Z,22.60
2018-09-26T15:56:48.695Z,22.50
2018-09-26T15:59:16.121Z,22.50
2018-09-26T16:01:43.579Z,22.50
2018-09-26T16:04:11.858Z,22.40
2018-09-26T16:06:39.350Z,22.40
2018-09-26T16:09:06.802Z,22.30
2018-09-26T16:11:34.246Z,22.30
2018-09-26T16:14:01.736Z,22.30
2018-09-26T16:16:29.101Z,22.30
2018-09-26T16:18:56.485Z,22.20
2018-09-26T16:21:23.982Z,22.20
2018-09-26T16:23:51.485Z,22.10
2018-09-26T16:26:18.998Z,22.10
2018-09-26T16:28:46.329Z,22.00
2018-09-26T16:31:13.808Z,22.00
2018-09-26T16:33:41.250Z,22.00
2018-09-26T16:36:08.766Z,21.90
2018-09-26T16:38:36.118Z,21.90
2018-09-26T16:41:03.534Z,21.80
2018-09-26T16:43:31.018Z,21.80
2018-09-26T16:45:58.406Z,21.70
2018-09-26T16:48:25.888Z,21.60
2018-09-26T16:50:53.314Z,21.50
2018-09-26T16:53:20.750Z,21.30
2018-09-26T16:55:48.173Z,20.90
2018-09-26T16:58:15.661Z,20.40
2018-09-26T17:00:43.043Z,20.40
2018-09-26T17:03:10.495Z,20.10
2018-09-26T17:05:37.941Z,19.60
2018-09-26T17:08:05.464Z,19.30
2018-09-26T17:13:07.666Z,19.10
2018-09-26T17:15:35.150Z,19.10
2018-09-26T17:18:02.773Z,19.40
2018-09-26T17:20:30.252Z,19.60
2018-09-26T17:22:57.827Z,19.50
2018-09-26T17:25:25.250Z,19.70
2018-09-26T17:27:52.770Z,19.80
2018-09-26T17:30:20.217Z,19.80
2018-09-26T17:32:47.612Z,19.90
2018-09-26T17:35:15.211Z,19.90
2018-09-26T17:37:42.693Z,19.90
2018-09-26T17:40:10.773Z,20.00
2018-09-26T17:42:38.193Z,20.10
2018-09-26T17:45:06.424Z,20.20
2018-09-26T17:47:33.859Z,20.40
2018-09-26T17:50:01.259Z,20.40
2018-09-26T17:52:28.695Z,20.40
2018-09-26T17:54:56.110Z,20.40
2018-09-26T17:57:23.540Z,20.20
2018-09-26T17:59:51.021Z,19.80
2018-09-26T18:02:18.461Z,19.70
2018-09-26T18:04:45.931Z,19.50
2018-09-26T18:07:13.381Z,19.20
2018-09-26T18:09:40.846Z,18.70
2018-09-26T18:12:08.311Z,18.40
2018-09-26T18:14:35.742Z,18.20
2018-09-26T18:17:03.148Z,18.30
2018-09-26T18:19:30.631Z,18.50
2018-09-26T18:21:58.078Z,18.60
2018-09-26T18:24:25.466Z,18.90
2018-09-26T18:26:52.922Z,18.80
2018-09-26T18:29:20.338Z,18.90
2018-09-26T18:31:47.813Z,19.10
2018-09-26T18:34:15.215Z,19.20
2018-09-26T18:36:42.697Z,19.10
2018-09-26T18:39:10.735Z,18.90
2018-09-26T18:41:38.162Z,18.90
2018-09-26T18:44:05.655Z,18.70
2018-09-26T18:46:33.154Z,18.80
2018-09-26T18:49:00.585Z,18.70
2018-09-26T18:51:28.099Z,18.40
2018-09-26T18:53:55.534Z,18.10
2018-09-26T18:56:22.943Z,17.80
2018-09-26T18:58:50.470Z,17.70
2018-09-26T19:01:17.808Z,18.00
2018-09-26T19:03:45.255Z,18.40
2018-09-26T19:06:12.664Z,18.40
2018-09-26T19:08:40.133Z,18.20
2018-09-26T19:11:07.583Z,18.10
2018-09-26T19:13:35.018Z,17.90
2018-09-26T19:16:02.455Z,17.70
2018-09-26T19:18:29.917Z,17.60
2018-09-26T19:20:57.344Z,17.70
2018-09-26T19:23:24.795Z,17.70
2018-09-26T19:25:52.255Z,17.60
2018-09-26T19:28:19.759Z,17.20
2018-09-26T19:30:47.150Z,17.00
2018-09-26T19:33:14.583Z,17.10
2018-09-26T19:35:42.123Z,17.20
2018-09-26T19:38:09.586Z,17.20
2018-09-26T19:40:37.012Z,17.20
2018-09-26T19:43:04.506Z,17.30
2018-09-26T19:45:31.941Z,17.20
2018-09-26T19:47:59.398Z,16.80
2018-09-26T19:50:26.874Z,16.60
2018-09-26T19:52:54.350Z,16.80
2018-09-26T19:55:21.842Z,17.00
2018-09-26T19:57:49.574Z,17.00
2018-09-26T20:00:17.024Z,17.10
2018-09-26T20:02:44.488Z,17.10
2018-09-26T20:05:11.957Z,17.00
2018-09-26T20:07:39.394Z,16.90
2018-09-26T20:10:07.853Z,16.90
2018-09-26T20:12:35.245Z,16.90
2018-09-26T20:15:02.718Z,16.80
2018-09-26T20:17:30.169Z,16.60
2018-09-26T20:19:57.611Z,16.40
2018-09-26T20:22:25.049Z,16.30
2018-09-26T20:24:52.533Z,16.50
2018-09-26T20:27:20.120Z,16.60
2018-09-26T20:29:47.537Z,16.60
2018-09-26T20:32:14.879Z,16.70
2018-09-26T20:34:42.367Z,16.80
2018-09-26T20:37:09.860Z,16.60
2018-09-26T20:39:37.261Z,16.30
2018-09-26T20:42:04.728Z,15.90
2018-09-26T20:44:32.185Z,15.70
2018-09-26T20:46:59.610Z,15.70
2018-09-26T20:49:27.019Z,15.80
2018-09-26T20:51:54.520Z,16.00
2018-09-26T20:54:21.903Z,16.10
2018-09-26T20:56:49.315Z,16.10
2018-09-26T20:59:16.738Z,16.10
2018-09-26T21:01:44.393Z,15.80
2018-09-26T21:04:11.799Z,15.50
2018-09-26T21:06:39.253Z,15.30
2018-09-26T21:09:08.154Z,15.40
2018-09-26T21:11:35.656Z,15.60
2018-09-26T21:14:03.090Z,15.70
2018-09-26T21:16:30.518Z,15.70
2018-09-26T21:18:57.985Z,15.60
2018-09-26T21:21:25.468Z,15.30
2018-09-26T21:23:52.914Z,15.10
2018-09-26T21:26:20.371Z,15.00
2018-09-26T21:28:47.935Z,15.10
2018-09-26T21:31:15.417Z,15.20
2018-09-26T21:33:42.774Z,15.30
2018-09-26T21:36:10.219Z,15.30
2018-09-26T21:38:37.645Z,15.40
2018-09-26T21:41:05.057Z,15.40
2018-09-26T21:43:32.453Z,15.40
2018-09-26T21:45:59.894Z,15.60
2018-09-26T21:48:27.358Z,15.90
2018-09-26T21:50:54.737Z,16.10
2018-09-26T21:53:22.146Z,15.80
2018-09-26T21:55:49.562Z,15.30
2018-09-26T21:58:16.958Z,14.90
2018-09-26T22:00:50.126Z,14.80
2018-09-26T22:03:17.709Z,14.70
2018-09-26T22:05:45.316Z,14.70
2018-09-26T22:08:12.914Z,14.60
2018-09-26T22:10:40.507Z,14.50
2018-09-26T22:13:08.088Z,14.50
2018-09-26T22:15:35.609Z,14.50
2018-09-26T22:18:03.185Z,14.60
2018-09-26T22:20:30.793Z,14.60
2018-09-26T22:22:58.366Z,14.70
2018-09-26T22:25:25.909Z,14.70
2018-09-26T22:27:53.478Z,14.70
2018-09-26T22:30:21.018Z,14.70
2018-09-26T22:32:48.561Z,14.60
2018-09-26T22:35:16.119Z,14.60
2018-09-26T22:37:43.657Z,14.60
2018-09-26T22:40:11.283Z,14.60
2018-09-26T22:42:38.930Z,14.40
2018-09-26T22:45:06.510Z,14.20
2018-09-26T22:47:34.021Z,14.20
2018-09-26T22:50:01.579Z,14.20
2018-09-26T22:52:29.096Z,14.20
2018-09-26T22:54:56.654Z,14.20
2018-09-26T22:57:24.222Z,14.30
2018-09-26T22:59:51.762Z,14.20
2018-09-26T23:02:19.277Z,14.40
2018-09-26T23:04:46.825Z,14.40
2018-09-26T23:07:14.359Z,14.40
2018-09-26T23:09:41.891Z,14.30
2018-09-26T23:12:09.430Z,14.20
2018-09-26T23:14:36.973Z,14.10
2018-09-26T23:17:04.577Z,13.90
2018-09-26T23:19:32.107Z,14.00
2018-09-26T23:21:59.638Z,14.00
2018-09-26T23:24:27.201Z,14.10
2018-09-26T23:26:54.709Z,14.10
2018-09-26T23:29:22.254Z,14.20
2018-09-26T23:31:49.785Z,14.10
2018-09-26T23:34:17.335Z,14.00
2018-09-26T23:36:44.874Z,14.00
2018-09-26T23:39:12.430Z,14.10
2018-09-26T23:41:40.097Z,14.10
2018-09-26T23:44:07.981Z,13.90
2018-09-26T23:46:35.538Z,13.70
2018-09-26T23:49:03.106Z,13.70
2018-09-26T23:51:30.702Z,13.80
2018-09-26T23:53:58.729Z,13.90
2018-09-26T23:56:26.283Z,13.90
2018-09-26T23:58:53.791Z,14.00
